sensor_id;sensor_type;location;lat;lon;timestamp;P1;durP1;ratioP1;P2;durP2;ratioP2
83761;SDS011;73752;49.594;8.734;2023-11-19T00:00:26;5.15;;;3.60;;
83761;SDS011;73752;49.594;8.734;2023-11-19T00:02:52;4.03;;;3.22;;
83761;SDS011;73752;49.594;8.734;2023-11-19T00:05:17;4.55;;;3.38;;
83761;SDS011;73752;49.594;8.734;2023-11-19T00:07:43;3.95;;;3.58;;
83761;SDS011;73752;49.594;8.734;2023-11-19T00:10:09;6.30;;;3.55;;
83761;SDS011;73752;49.594;8.734;2023-11-19T00:12:39;5.40;;;3.67;;
83761;SDS011;73752;49.594;8.734;2023-11-19T00:15:06;7.57;;;3.55;;
83761;SDS011;73752;49.594;8.734;2023-11-19T00:17:36;3.70;;;3.30;;
83761;SDS011;73752;49.594;8.734;2023-11-19T00:20:14;4.72;;;3.92;;
83761;SDS011;73752;49.594;8.734;2023-11-19T00:22:41;4.53;;;3.38;;
83761;SDS011;73752;49.594;8.734;2023-11-19T00:25:07;4.38;;;2.78;;
83761;SDS011;73752;49.594;8.734;2023-11-19T00:27:33;8.15;;;3.58;;
83761;SDS011;73752;49.594;8.734;2023-11-19T00:29:59;3.75;;;3.28;;
83761;SDS011;73752;49.594;8.734;2023-11-19T00:32:24;5.35;;;2.88;;
83761;SDS011;73752;49.594;8.734;2023-11-19T00:34:50;5.53;;;2.90;;
83761;SDS011;73752;49.594;8.734;2023-11-19T00:37:15;3.03;;;2.47;;
83761;SDS011;73752;49.594;8.734;2023-11-19T00:39:41;4.80;;;2.42;;
83761;SDS011;73752;49.594;8.734;2023-11-19T00:42:07;2.38;;;2.05;;
83761;SDS011;73752;49.594;8.734;2023-11-19T00:44:32;2.75;;;2.20;;
83761;SDS011;73752;49.594;8.734;2023-11-19T00:46:58;3.55;;;2.05;;
83761;SDS011;73752;49.594;8.734;2023-11-19T00:49:24;3.67;;;2.00;;
83761;SDS011;73752;49.594;8.734;2023-11-19T00:51:50;2.67;;;2.03;;
83761;SDS011;73752;49.594;8.734;2023-11-19T00:54:15;8.20;;;2.15;;
83761;SDS011;73752;49.594;8.734;2023-11-19T00:56:40;2.72;;;1.88;;
83761;SDS011;73752;49.594;8.734;2023-11-19T00:59:06;2.58;;;1.70;;
83761;SDS011;73752;49.594;8.734;2023-11-19T01:01:31;4.30;;;1.60;;
83761;SDS011;73752;49.594;8.734;2023-11-19T01:03:56;1.70;;;1.40;;
83761;SDS011;73752;49.594;8.734;2023-11-19T01:06:28;1.85;;;1.50;;
83761;SDS011;73752;49.594;8.734;2023-11-19T01:08:57;4.07;;;1.10;;
83761;SDS011;73752;49.594;8.734;2023-11-19T01:11:23;4.00;;;1.20;;
83761;SDS011;73752;49.594;8.734;2023-11-19T01:13:49;3.70;;;1.08;;
83761;SDS011;73752;49.594;8.734;2023-11-19T01:16:15;1.25;;;0.98;;
83761;SDS011;73752;49.594;8.734;2023-11-19T01:18:41;4.90;;;1.20;;
83761;SDS011;73752;49.594;8.734;2023-11-19T01:21:07;2.45;;;0.93;;
83761;SDS011;73752;49.594;8.734;2023-11-19T01:23:32;0.95;;;0.88;;
83761;SDS011;73752;49.594;8.734;2023-11-19T01:25:57;2.00;;;0.95;;
83761;SDS011;73752;49.594;8.734;2023-11-19T01:28:23;0.82;;;0.82;;
83761;SDS011;73752;49.594;8.734;2023-11-19T01:30:50;1.00;;;0.90;;
83761;SDS011;73752;49.594;8.734;2023-11-19T01:33:16;1.23;;;0.90;;
83761;SDS011;73752;49.594;8.734;2023-11-19T01:35:41;1.17;;;1.08;;
83761;SDS011;73752;49.594;8.734;2023-11-19T01:38:06;5.45;;;0.73;;
83761;SDS011;73752;49.594;8.734;2023-11-19T01:40:33;1.20;;;1.10;;
83761;SDS011;73752;49.594;8.734;2023-11-19T01:42:59;3.10;;;1.02;;
83761;SDS011;73752;49.594;8.734;2023-11-19T01:45:28;1.05;;;0.95;;
83761;SDS011;73752;49.594;8.734;2023-11-19T01:47:55;1.67;;;1.08;;
83761;SDS011;73752;49.594;8.734;2023-11-19T01:50:25;1.75;;;0.90;;
83761;SDS011;73752;49.594;8.734;2023-11-19T01:52:54;1.27;;;1.10;;
83761;SDS011;73752;49.594;8.734;2023-11-19T01:55:22;1.98;;;0.70;;
83761;SDS011;73752;49.594;8.734;2023-11-19T01:57:49;1.02;;;0.90;;
83761;SDS011;73752;49.594;8.734;2023-11-19T02:00:16;1.42;;;0.93;;
83761;SDS011;73752;49.594;8.734;2023-11-19T02:02:44;0.70;;;0.70;;
83761;SDS011;73752;49.594;8.734;2023-11-19T02:05:11;3.08;;;1.00;;
83761;SDS011;73752;49.594;8.734;2023-11-19T02:07:38;0.70;;;0.68;;
83761;SDS011;73752;49.594;8.734;2023-11-19T02:10:03;0.60;;;0.60;;
83761;SDS011;73752;49.594;8.734;2023-11-19T02:12:30;2.30;;;0.90;;
83761;SDS011;73752;49.594;8.734;2023-11-19T02:14:59;6.13;;;0.70;;
83761;SDS011;73752;49.594;8.734;2023-11-19T02:17:28;0.85;;;0.80;;
83761;SDS011;73752;49.594;8.734;2023-11-19T02:19:56;0.90;;;0.80;;
83761;SDS011;73752;49.594;8.734;2023-11-19T02:22:22;1.13;;;0.80;;
83761;SDS011;73752;49.594;8.734;2023-11-19T02:24:47;1.20;;;0.73;;
83761;SDS011;73752;49.594;8.734;2023-11-19T02:27:18;1.15;;;0.60;;
83761;SDS011;73752;49.594;8.734;2023-11-19T02:29:52;1.15;;;1.00;;
83761;SDS011;73752;49.594;8.734;2023-11-19T02:32:18;1.52;;;0.70;;
83761;SDS011;73752;49.594;8.734;2023-11-19T02:34:44;1.48;;;0.80;;
83761;SDS011;73752;49.594;8.734;2023-11-19T02:37:09;1.00;;;0.90;;
83761;SDS011;73752;49.594;8.734;2023-11-19T02:39:35;1.05;;;0.77;;
83761;SDS011;73752;49.594;8.734;2023-11-19T02:42:02;3.17;;;1.00;;
83761;SDS011;73752;49.594;8.734;2023-11-19T02:44:27;1.15;;;0.93;;
83761;SDS011;73752;49.594;8.734;2023-11-19T02:46:55;1.20;;;1.00;;
83761;SDS011;73752;49.594;8.734;2023-11-19T02:49:24;1.10;;;1.00;;
83761;SDS011;73752;49.594;8.734;2023-11-19T02:51:50;3.15;;;0.98;;
83761;SDS011;73752;49.594;8.734;2023-11-19T02:54:15;2.95;;;0.85;;
83761;SDS011;73752;49.594;8.734;2023-11-19T02:56:44;1.80;;;1.20;;
83761;SDS011;73752;49.594;8.734;2023-11-19T02:59:12;1.17;;;0.90;;
83761;SDS011;73752;49.594;8.734;2023-11-19T03:01:52;5.45;;;1.73;;
83761;SDS011;73752;49.594;8.734;2023-11-19T03:04:17;1.63;;;1.50;;
83761;SDS011;73752;49.594;8.734;2023-11-19T03:06:45;1.60;;;1.00;;
83761;SDS011;73752;49.594;8.734;2023-11-19T03:09:10;4.88;;;1.20;;
83761;SDS011;73752;49.594;8.734;2023-11-19T03:11:36;1.23;;;1.13;;
83761;SDS011;73752;49.594;8.734;2023-11-19T03:14:01;2.28;;;1.48;;
83761;SDS011;73752;49.594;8.734;2023-11-19T03:16:28;1.58;;;1.23;;
83761;SDS011;73752;49.594;8.734;2023-11-19T03:18:54;1.48;;;1.38;;
83761;SDS011;73752;49.594;8.734;2023-11-19T03:21:24;1.45;;;1.35;;
83761;SDS011;73752;49.594;8.734;2023-11-19T03:23:52;2.58;;;1.38;;
83761;SDS011;73752;49.594;8.734;2023-11-19T03:26:17;1.80;;;1.60;;
83761;SDS011;73752;49.594;8.734;2023-11-19T03:28:43;1.50;;;1.40;;
83761;SDS011;73752;49.594;8.734;2023-11-19T03:31:08;1.77;;;1.67;;
83761;SDS011;73752;49.594;8.734;2023-11-19T03:33:33;1.73;;;1.63;;
83761;SDS011;73752;49.594;8.734;2023-11-19T03:35:58;1.77;;;1.35;;
83761;SDS011;73752;49.594;8.734;2023-11-19T03:38:24;1.85;;;1.70;;
83761;SDS011;73752;49.594;8.734;2023-11-19T03:40:49;3.25;;;1.90;;
83761;SDS011;73752;49.594;8.734;2023-11-19T03:43:15;1.65;;;1.55;;
83761;SDS011;73752;49.594;8.734;2023-11-19T03:45:40;1.58;;;1.40;;
83761;SDS011;73752;49.594;8.734;2023-11-19T03:48:06;2.47;;;1.58;;
83761;SDS011;73752;49.594;8.734;2023-11-19T03:50:31;1.60;;;1.50;;
83761;SDS011;73752;49.594;8.734;2023-11-19T03:52:56;1.70;;;1.60;;
83761;SDS011;73752;49.594;8.734;2023-11-19T03:55:22;3.85;;;1.98;;
83761;SDS011;73752;49.594;8.734;2023-11-19T03:57:47;2.33;;;1.60;;
83761;SDS011;73752;49.594;8.734;2023-11-19T04:00:13;1.85;;;1.70;;
83761;SDS011;73752;49.594;8.734;2023-11-19T04:02:39;2.38;;;1.65;;
83761;SDS011;73752;49.594;8.734;2023-11-19T04:05:05;2.25;;;1.92;;
83761;SDS011;73752;49.594;8.734;2023-11-19T04:07:34;2.10;;;2.00;;
83761;SDS011;73752;49.594;8.734;2023-11-19T04:10:00;2.15;;;1.95;;
83761;SDS011;73752;49.594;8.734;2023-11-19T04:12:25;2.65;;;1.92;;
83761;SDS011;73752;49.594;8.734;2023-11-19T04:14:51;2.75;;;2.00;;
83761;SDS011;73752;49.594;8.734;2023-11-19T04:17:16;2.47;;;2.25;;
83761;SDS011;73752;49.594;8.734;2023-11-19T04:19:41;2.47;;;2.28;;
83761;SDS011;73752;49.594;8.734;2023-11-19T04:22:08;3.05;;;2.10;;
83761;SDS011;73752;49.594;8.734;2023-11-19T04:24:34;2.65;;;1.98;;
83761;SDS011;73752;49.594;8.734;2023-11-19T04:26:59;4.20;;;2.20;;
83761;SDS011;73752;49.594;8.734;2023-11-19T04:29:25;2.15;;;2.00;;
83761;SDS011;73752;49.594;8.734;2023-11-19T04:31:50;2.08;;;1.88;;
83761;SDS011;73752;49.594;8.734;2023-11-19T04:34:15;3.90;;;1.92;;
83761;SDS011;73752;49.594;8.734;2023-11-19T04:36:41;2.28;;;2.08;;
83761;SDS011;73752;49.594;8.734;2023-11-19T04:39:06;2.95;;;2.20;;
83761;SDS011;73752;49.594;8.734;2023-11-19T04:41:50;2.75;;;2.47;;
83761;SDS011;73752;49.594;8.734;2023-11-19T04:44:19;3.60;;;2.10;;
83761;SDS011;73752;49.594;8.734;2023-11-19T04:46:44;2.00;;;1.90;;
83761;SDS011;73752;49.594;8.734;2023-11-19T04:49:11;4.03;;;2.00;;
83761;SDS011;73752;49.594;8.734;2023-11-19T04:51:43;2.33;;;2.10;;
83761;SDS011;73752;49.594;8.734;2023-11-19T04:54:09;2.60;;;2.40;;
83761;SDS011;73752;49.594;8.734;2023-11-19T04:56:37;2.35;;;2.15;;
83761;SDS011;73752;49.594;8.734;2023-11-19T04:59:03;2.90;;;2.63;;
83761;SDS011;73752;49.594;8.734;2023-11-19T05:01:30;2.60;;;2.40;;
83761;SDS011;73752;49.594;8.734;2023-11-19T05:03:56;2.53;;;2.22;;
83761;SDS011;73752;49.594;8.734;2023-11-19T05:06:25;2.40;;;2.13;;
83761;SDS011;73752;49.594;8.734;2023-11-19T05:08:54;2.67;;;2.40;;
83761;SDS011;73752;49.594;8.734;2023-11-19T05:11:21;3.75;;;2.50;;
83761;SDS011;73752;49.594;8.734;2023-11-19T05:13:46;2.67;;;2.47;;
83761;SDS011;73752;49.594;8.734;2023-11-19T05:16:12;3.22;;;2.70;;
83761;SDS011;73752;49.594;8.734;2023-11-19T05:18:40;3.28;;;2.45;;
83761;SDS011;73752;49.594;8.734;2023-11-19T05:21:05;5.13;;;2.42;;
83761;SDS011;73752;49.594;8.734;2023-11-19T05:23:32;4.30;;;2.38;;
83761;SDS011;73752;49.594;8.734;2023-11-19T05:25:58;2.50;;;2.30;;
83761;SDS011;73752;49.594;8.734;2023-11-19T05:28:24;2.63;;;2.33;;
83761;SDS011;73752;49.594;8.734;2023-11-19T05:30:51;4.43;;;2.55;;
83761;SDS011;73752;49.594;8.734;2023-11-19T05:33:16;4.57;;;2.42;;
83761;SDS011;73752;49.594;8.734;2023-11-19T05:35:41;4.03;;;2.97;;
83761;SDS011;73752;49.594;8.734;2023-11-19T05:38:07;3.75;;;3.00;;
83761;SDS011;73752;49.594;8.734;2023-11-19T05:40:32;3.70;;;2.50;;
83761;SDS011;73752;49.594;8.734;2023-11-19T05:42:57;3.05;;;2.72;;
83761;SDS011;73752;49.594;8.734;2023-11-19T05:45:23;4.18;;;2.60;;
83761;SDS011;73752;49.594;8.734;2023-11-19T05:47:48;5.55;;;2.88;;
83761;SDS011;73752;49.594;8.734;2023-11-19T05:50:14;3.38;;;2.70;;
83761;SDS011;73752;49.594;8.734;2023-11-19T05:52:41;8.45;;;2.90;;
83761;SDS011;73752;49.594;8.734;2023-11-19T05:55:07;4.25;;;2.53;;
83761;SDS011;73752;49.594;8.734;2023-11-19T05:57:36;5.85;;;2.85;;
83761;SDS011;73752;49.594;8.734;2023-11-19T06:00:03;8.63;;;2.90;;
83761;SDS011;73752;49.594;8.734;2023-11-19T06:02:32;6.18;;;3.40;;
83761;SDS011;73752;49.594;8.734;2023-11-19T06:04:57;7.03;;;2.78;;
83761;SDS011;73752;49.594;8.734;2023-11-19T06:07:23;5.45;;;2.58;;
83761;SDS011;73752;49.594;8.734;2023-11-19T06:09:48;4.30;;;2.95;;
83761;SDS011;73752;49.594;8.734;2023-11-19T06:12:13;3.75;;;2.58;;
83761;SDS011;73752;49.594;8.734;2023-11-19T06:14:39;3.67;;;2.17;;
83761;SDS011;73752;49.594;8.734;2023-11-19T06:17:05;3.25;;;2.25;;
83761;SDS011;73752;49.594;8.734;2023-11-19T06:19:30;6.85;;;2.33;;
83761;SDS011;73752;49.594;8.734;2023-11-19T06:21:56;3.92;;;2.15;;
83761;SDS011;73752;49.594;8.734;2023-11-19T06:24:21;9.65;;;2.22;;
83761;SDS011;73752;49.594;8.734;2023-11-19T06:26:47;4.50;;;2.45;;
83761;SDS011;73752;49.594;8.734;2023-11-19T06:29:13;4.00;;;2.30;;
83761;SDS011;73752;49.594;8.734;2023-11-19T06:31:43;4.88;;;2.10;;
83761;SDS011;73752;49.594;8.734;2023-11-19T06:34:09;7.22;;;2.30;;
83761;SDS011;73752;49.594;8.734;2023-11-19T06:36:35;5.00;;;2.25;;
83761;SDS011;73752;49.594;8.734;2023-11-19T06:39:00;3.08;;;2.50;;
83761;SDS011;73752;49.594;8.734;2023-11-19T06:41:27;3.08;;;2.13;;
83761;SDS011;73752;49.594;8.734;2023-11-19T06:43:54;4.80;;;2.45;;
83761;SDS011;73752;49.594;8.734;2023-11-19T06:46:19;9.60;;;2.58;;
83761;SDS011;73752;49.594;8.734;2023-11-19T06:48:45;3.13;;;2.30;;
83761;SDS011;73752;49.594;8.734;2023-11-19T06:51:11;4.03;;;2.70;;
83761;SDS011;73752;49.594;8.734;2023-11-19T06:53:37;4.55;;;2.40;;
83761;SDS011;73752;49.594;8.734;2023-11-19T06:56:02;2.88;;;2.47;;
83761;SDS011;73752;49.594;8.734;2023-11-19T06:58:31;3.10;;;2.38;;
83761;SDS011;73752;49.594;8.734;2023-11-19T07:01:00;7.53;;;2.78;;
83761;SDS011;73752;49.594;8.734;2023-11-19T07:03:26;5.05;;;2.65;;
83761;SDS011;73752;49.594;8.734;2023-11-19T07:05:51;5.68;;;2.38;;
83761;SDS011;73752;49.594;8.734;2023-11-19T07:08:16;8.23;;;2.40;;
83761;SDS011;73752;49.594;8.734;2023-11-19T07:10:42;3.72;;;2.03;;
83761;SDS011;73752;49.594;8.734;2023-11-19T07:13:07;3.50;;;2.20;;
83761;SDS011;73752;49.594;8.734;2023-11-19T07:15:32;1.95;;;1.55;;
83761;SDS011;73752;49.594;8.734;2023-11-19T07:17:58;2.25;;;1.58;;
83761;SDS011;73752;49.594;8.734;2023-11-19T07:20:24;4.35;;;1.60;;
83761;SDS011;73752;49.594;8.734;2023-11-19T07:22:52;2.85;;;1.70;;
83761;SDS011;73752;49.594;8.734;2023-11-19T07:25:19;5.05;;;1.70;;
83761;SDS011;73752;49.594;8.734;2023-11-19T07:27:45;5.68;;;2.15;;
83761;SDS011;73752;49.594;8.734;2023-11-19T07:30:12;2.70;;;1.80;;
83761;SDS011;73752;49.594;8.734;2023-11-19T07:32:37;3.53;;;1.40;;
83761;SDS011;73752;49.594;8.734;2023-11-19T07:35:04;6.05;;;1.60;;
83761;SDS011;73752;49.594;8.734;2023-11-19T07:37:30;1.80;;;1.40;;
83761;SDS011;73752;49.594;8.734;2023-11-19T07:39:56;5.30;;;1.60;;
83761;SDS011;73752;49.594;8.734;2023-11-19T07:42:25;9.13;;;1.42;;
83761;SDS011;73752;49.594;8.734;2023-11-19T07:44:53;6.07;;;1.45;;
83761;SDS011;73752;49.594;8.734;2023-11-19T07:47:20;3.28;;;1.70;;
83761;SDS011;73752;49.594;8.734;2023-11-19T07:49:47;5.00;;;1.70;;
83761;SDS011;73752;49.594;8.734;2023-11-19T07:52:14;4.70;;;1.63;;
83761;SDS011;73752;49.594;8.734;2023-11-19T07:54:42;4.50;;;2.00;;
83761;SDS011;73752;49.594;8.734;2023-11-19T07:57:08;2.35;;;1.40;;
83761;SDS011;73752;49.594;8.734;2023-11-19T07:59:39;4.78;;;1.65;;
83761;SDS011;73752;49.594;8.734;2023-11-19T08:02:04;5.80;;;1.45;;
83761;SDS011;73752;49.594;8.734;2023-11-19T08:04:30;5.65;;;1.58;;
83761;SDS011;73752;49.594;8.734;2023-11-19T08:06:56;7.50;;;1.65;;
83761;SDS011;73752;49.594;8.734;2023-11-19T08:09:21;5.63;;;1.50;;
83761;SDS011;73752;49.594;8.734;2023-11-19T08:11:48;6.50;;;1.85;;
83761;SDS011;73752;49.594;8.734;2023-11-19T08:14:14;3.80;;;1.35;;
83761;SDS011;73752;49.594;8.734;2023-11-19T08:16:40;5.35;;;1.60;;
83761;SDS011;73752;49.594;8.734;2023-11-19T08:19:06;3.95;;;1.52;;
83761;SDS011;73752;49.594;8.734;2023-11-19T08:21:31;11.80;;;2.42;;
83761;SDS011;73752;49.594;8.734;2023-11-19T08:23:57;3.85;;;1.80;;
83761;SDS011;73752;49.594;8.734;2023-11-19T08:26:22;4.80;;;2.30;;
83761;SDS011;73752;49.594;8.734;2023-11-19T08:28:48;4.55;;;1.75;;
83761;SDS011;73752;49.594;8.734;2023-11-19T08:31:13;2.88;;;1.75;;
83761;SDS011;73752;49.594;8.734;2023-11-19T08:33:39;3.65;;;1.88;;
83761;SDS011;73752;49.594;8.734;2023-11-19T08:36:04;2.22;;;1.50;;
83761;SDS011;73752;49.594;8.734;2023-11-19T08:38:31;2.25;;;1.30;;
83761;SDS011;73752;49.594;8.734;2023-11-19T08:40:56;1.13;;;0.93;;
83761;SDS011;73752;49.594;8.734;2023-11-19T08:43:26;1.40;;;0.80;;
83761;SDS011;73752;49.594;8.734;2023-11-19T08:45:51;1.65;;;1.10;;
83761;SDS011;73752;49.594;8.734;2023-11-19T08:48:17;1.52;;;1.00;;
83761;SDS011;73752;49.594;8.734;2023-11-19T08:50:42;5.40;;;1.20;;
83761;SDS011;73752;49.594;8.734;2023-11-19T08:53:08;2.20;;;1.00;;
83761;SDS011;73752;49.594;8.734;2023-11-19T08:55:33;2.50;;;1.08;;
83761;SDS011;73752;49.594;8.734;2023-11-19T08:57:58;4.22;;;1.30;;
83761;SDS011;73752;49.594;8.734;2023-11-19T09:00:24;5.45;;;1.42;;
83761;SDS011;73752;49.594;8.734;2023-11-19T09:02:49;4.53;;;1.52;;
83761;SDS011;73752;49.594;8.734;2023-11-19T09:05:15;3.65;;;1.52;;
83761;SDS011;73752;49.594;8.734;2023-11-19T09:07:40;2.60;;;1.10;;
83761;SDS011;73752;49.594;8.734;2023-11-19T09:10:06;3.80;;;1.40;;
83761;SDS011;73752;49.594;8.734;2023-11-19T09:12:33;7.13;;;1.40;;
83761;SDS011;73752;49.594;8.734;2023-11-19T09:14:59;6.78;;;1.33;;
83761;SDS011;73752;49.594;8.734;2023-11-19T09:17:24;4.35;;;1.75;;
83761;SDS011;73752;49.594;8.734;2023-11-19T09:19:50;2.55;;;1.15;;
83761;SDS011;73752;49.594;8.734;2023-11-19T09:22:15;3.85;;;1.65;;
83761;SDS011;73752;49.594;8.734;2023-11-19T09:24:41;5.22;;;1.42;;
83761;SDS011;73752;49.594;8.734;2023-11-19T09:27:07;3.30;;;1.67;;
83761;SDS011;73752;49.594;8.734;2023-11-19T09:29:32;7.60;;;1.90;;
83761;SDS011;73752;49.594;8.734;2023-11-19T09:31:58;3.05;;;1.50;;
83761;SDS011;73752;49.594;8.734;2023-11-19T09:34:23;7.28;;;1.55;;
83761;SDS011;73752;49.594;8.734;2023-11-19T09:36:48;3.28;;;1.40;;
83761;SDS011;73752;49.594;8.734;2023-11-19T09:39:16;11.13;;;1.70;;
83761;SDS011;73752;49.594;8.734;2023-11-19T09:41:43;4.13;;;1.60;;
83761;SDS011;73752;49.594;8.734;2023-11-19T09:44:10;5.03;;;1.38;;
83761;SDS011;73752;49.594;8.734;2023-11-19T09:46:36;8.02;;;2.05;;
83761;SDS011;73752;49.594;8.734;2023-11-19T09:49:06;5.85;;;2.00;;
83761;SDS011;73752;49.594;8.734;2023-11-19T09:51:34;5.45;;;2.28;;
83761;SDS011;73752;49.594;8.734;2023-11-19T09:54:00;7.25;;;1.83;;
83761;SDS011;73752;49.594;8.734;2023-11-19T09:56:26;9.27;;;2.58;;
83761;SDS011;73752;49.594;8.734;2023-11-19T09:58:54;3.78;;;1.90;;
83761;SDS011;73752;49.594;8.734;2023-11-19T10:01:20;4.55;;;1.90;;
83761;SDS011;73752;49.594;8.734;2023-11-19T10:03:46;4.50;;;1.90;;
83761;SDS011;73752;49.594;8.734;2023-11-19T10:06:12;7.50;;;1.80;;
83761;SDS011;73752;49.594;8.734;2023-11-19T10:08:40;6.05;;;2.28;;
83761;SDS011;73752;49.594;8.734;2023-11-19T10:11:07;10.30;;;2.30;;
83761;SDS011;73752;49.594;8.734;2023-11-19T10:13:34;12.40;;;2.38;;
83761;SDS011;73752;49.594;8.734;2023-11-19T10:16:03;12.10;;;2.35;;
83761;SDS011;73752;49.594;8.734;2023-11-19T10:18:32;8.20;;;2.80;;
83761;SDS011;73752;49.594;8.734;2023-11-19T10:21:02;7.03;;;2.00;;
83761;SDS011;73752;49.594;8.734;2023-11-19T10:23:28;8.65;;;2.53;;
83761;SDS011;73752;49.594;8.734;2023-11-19T10:25:53;4.28;;;2.17;;
83761;SDS011;73752;49.594;8.734;2023-11-19T10:28:19;6.22;;;2.50;;
83761;SDS011;73752;49.594;8.734;2023-11-19T10:30:44;7.35;;;2.80;;
83761;SDS011;73752;49.594;8.734;2023-11-19T10:33:13;9.85;;;2.20;;
83761;SDS011;73752;49.594;8.734;2023-11-19T10:35:54;12.43;;;2.28;;
83761;SDS011;73752;49.594;8.734;2023-11-19T10:38:21;5.75;;;2.40;;
83761;SDS011;73752;49.594;8.734;2023-11-19T10:40:48;6.60;;;2.30;;
83761;SDS011;73752;49.594;8.734;2023-11-19T10:43:15;5.55;;;1.98;;
83761;SDS011;73752;49.594;8.734;2023-11-19T10:45:40;9.45;;;2.50;;
83761;SDS011;73752;49.594;8.734;2023-11-19T10:48:06;8.73;;;2.40;;
83761;SDS011;73752;49.594;8.734;2023-11-19T10:50:32;5.03;;;1.85;;
83761;SDS011;73752;49.594;8.734;2023-11-19T10:52:59;4.50;;;2.05;;
83761;SDS011;73752;49.594;8.734;2023-11-19T10:55:28;7.03;;;2.25;;
83761;SDS011;73752;49.594;8.734;2023-11-19T10:58:04;7.85;;;2.17;;
83761;SDS011;73752;49.594;8.734;2023-11-19T11:00:37;7.00;;;1.80;;
83761;SDS011;73752;49.594;8.734;2023-11-19T11:03:10;5.50;;;1.88;;
83761;SDS011;73752;49.594;8.734;2023-11-19T11:05:40;17.98;;;2.30;;
83761;SDS011;73752;49.594;8.734;2023-11-19T11:08:06;8.68;;;2.50;;
83761;SDS011;73752;49.594;8.734;2023-11-19T11:10:32;10.18;;;2.03;;
83761;SDS011;73752;49.594;8.734;2023-11-19T11:13:04;8.88;;;1.60;;
83761;SDS011;73752;49.594;8.734;2023-11-19T11:15:30;6.85;;;1.90;;
83761;SDS011;73752;49.594;8.734;2023-11-19T11:18:00;8.00;;;2.53;;
83761;SDS011;73752;49.594;8.734;2023-11-19T11:20:29;12.87;;;2.80;;
83761;SDS011;73752;49.594;8.734;2023-11-19T11:31:30;7.68;;;2.15;;
83761;SDS011;73752;49.594;8.734;2023-11-19T11:39:34;6.30;;;1.40;;
83761;SDS011;73752;49.594;8.734;2023-11-19T11:50:06;5.30;;;1.63;;
83761;SDS011;73752;49.594;8.734;2023-11-19T11:52:33;5.05;;;1.55;;
83761;SDS011;73752;49.594;8.734;2023-11-19T11:55:04;8.68;;;1.60;;
83761;SDS011;73752;49.594;8.734;2023-11-19T11:57:35;5.30;;;1.85;;
83761;SDS011;73752;49.594;8.734;2023-11-19T12:00:02;7.75;;;1.70;;
83761;SDS011;73752;49.594;8.734;2023-11-19T12:02:30;10.32;;;2.03;;
83761;SDS011;73752;49.594;8.734;2023-11-19T12:04:55;4.95;;;1.83;;
83761;SDS011;73752;49.594;8.734;2023-11-19T12:07:22;5.47;;;1.67;;
83761;SDS011;73752;49.594;8.734;2023-11-19T12:10:08;12.35;;;3.72;;
83761;SDS011;73752;49.594;8.734;2023-11-19T12:12:36;7.45;;;1.80;;
83761;SDS011;73752;49.594;8.734;2023-11-19T12:20:03;9.07;;;1.60;;
83761;SDS011;73752;49.594;8.734;2023-11-19T12:22:33;6.45;;;2.72;;
83761;SDS011;73752;49.594;8.734;2023-11-19T12:24:59;5.07;;;2.10;;
83761;SDS011;73752;49.594;8.734;2023-11-19T12:27:24;7.63;;;2.10;;
83761;SDS011;73752;49.594;8.734;2023-11-19T12:29:51;6.60;;;1.80;;
83761;SDS011;73752;49.594;8.734;2023-11-19T12:32:17;8.57;;;1.77;;
83761;SDS011;73752;49.594;8.734;2023-11-19T12:34:42;5.90;;;2.00;;
83761;SDS011;73752;49.594;8.734;2023-11-19T12:37:09;5.22;;;2.45;;
83761;SDS011;73752;49.594;8.734;2023-11-19T12:39:34;10.60;;;2.42;;
83761;SDS011;73752;49.594;8.734;2023-11-19T12:42:00;6.13;;;1.85;;
83761;SDS011;73752;49.594;8.734;2023-11-19T12:44:25;7.00;;;1.70;;
83761;SDS011;73752;49.594;8.734;2023-11-19T12:47:00;4.88;;;1.95;;
83761;SDS011;73752;49.594;8.734;2023-11-19T12:49:27;7.90;;;2.25;;
83761;SDS011;73752;49.594;8.734;2023-11-19T12:51:52;4.95;;;1.77;;
83761;SDS011;73752;49.594;8.734;2023-11-19T12:54:18;6.97;;;1.83;;
83761;SDS011;73752;49.594;8.734;2023-11-19T12:56:52;12.18;;;2.03;;
83761;SDS011;73752;49.594;8.734;2023-11-19T12:59:18;14.38;;;1.88;;
83761;SDS011;73752;49.594;8.734;2023-11-19T13:01:56;9.55;;;1.77;;
83761;SDS011;73752;49.594;8.734;2023-11-19T13:04:22;10.98;;;1.63;;
83761;SDS011;73752;49.594;8.734;2023-11-19T13:06:49;7.07;;;1.83;;
83761;SDS011;73752;49.594;8.734;2023-11-19T13:09:21;10.50;;;1.95;;
83761;SDS011;73752;49.594;8.734;2023-11-19T13:11:50;8.25;;;1.80;;
83761;SDS011;73752;49.594;8.734;2023-11-19T13:14:16;11.05;;;2.30;;
83761;SDS011;73752;49.594;8.734;2023-11-19T13:16:42;9.60;;;1.92;;
83761;SDS011;73752;49.594;8.734;2023-11-19T13:19:07;10.50;;;2.10;;
83761;SDS011;73752;49.594;8.734;2023-11-19T13:21:33;8.82;;;2.03;;
83761;SDS011;73752;49.594;8.734;2023-11-19T13:23:59;11.00;;;2.28;;
83761;SDS011;73752;49.594;8.734;2023-11-19T13:26:24;10.68;;;1.73;;
83761;SDS011;73752;49.594;8.734;2023-11-19T13:28:50;8.43;;;1.98;;
83761;SDS011;73752;49.594;8.734;2023-11-19T13:31:15;8.10;;;1.60;;
83761;SDS011;73752;49.594;8.734;2023-11-19T13:33:41;9.80;;;1.92;;
83761;SDS011;73752;49.594;8.734;2023-11-19T13:36:07;9.13;;;2.22;;
83761;SDS011;73752;49.594;8.734;2023-11-19T13:38:36;12.68;;;2.40;;
83761;SDS011;73752;49.594;8.734;2023-11-19T13:41:02;14.63;;;2.40;;
83761;SDS011;73752;49.594;8.734;2023-11-19T13:43:29;5.88;;;2.20;;
83761;SDS011;73752;49.594;8.734;2023-11-19T13:45:55;11.70;;;1.90;;
83761;SDS011;73752;49.594;8.734;2023-11-19T13:48:21;10.88;;;2.47;;
83761;SDS011;73752;49.594;8.734;2023-11-19T13:50:46;11.63;;;1.92;;
83761;SDS011;73752;49.594;8.734;2023-11-19T13:53:12;9.45;;;1.90;;
83761;SDS011;73752;49.594;8.734;2023-11-19T13:55:37;12.52;;;2.80;;
83761;SDS011;73752;49.594;8.734;2023-11-19T13:58:03;7.47;;;2.70;;
83761;SDS011;73752;49.594;8.734;2023-11-19T14:00:28;10.95;;;2.17;;
83761;SDS011;73752;49.594;8.734;2023-11-19T14:02:54;8.63;;;2.40;;
83761;SDS011;73752;49.594;8.734;2023-11-19T14:05:19;12.23;;;3.03;;
83761;SDS011;73752;49.594;8.734;2023-11-19T14:07:45;8.90;;;2.22;;
83761;SDS011;73752;49.594;8.734;2023-11-19T14:10:14;11.75;;;2.70;;
83761;SDS011;73752;49.594;8.734;2023-11-19T14:12:40;13.00;;;3.05;;
83761;SDS011;73752;49.594;8.734;2023-11-19T14:15:06;10.35;;;3.72;;
83761;SDS011;73752;49.594;8.734;2023-11-19T14:17:34;9.40;;;2.70;;
83761;SDS011;73752;49.594;8.734;2023-11-19T14:19:59;8.32;;;1.98;;
83761;SDS011;73752;49.594;8.734;2023-11-19T14:22:25;7.40;;;2.70;;
83761;SDS011;73752;49.594;8.734;2023-11-19T14:24:50;11.00;;;3.17;;
83761;SDS011;73752;49.594;8.734;2023-11-19T14:27:16;5.60;;;1.90;;
83761;SDS011;73752;49.594;8.734;2023-11-19T14:29:44;6.97;;;2.50;;
83761;SDS011;73752;49.594;8.734;2023-11-19T14:32:10;11.23;;;1.73;;
83761;SDS011;73752;49.594;8.734;2023-11-19T14:34:35;5.13;;;1.67;;
83761;SDS011;73752;49.594;8.734;2023-11-19T14:37:01;7.53;;;1.50;;
83761;SDS011;73752;49.594;8.734;2023-11-19T14:39:26;8.75;;;2.20;;
83761;SDS011;73752;49.594;8.734;2023-11-19T14:41:51;7.10;;;1.90;;
83761;SDS011;73752;49.594;8.734;2023-11-19T14:44:18;12.10;;;2.67;;
83761;SDS011;73752;49.594;8.734;2023-11-19T14:46:45;14.15;;;7.30;;
83761;SDS011;73752;49.594;8.734;2023-11-19T14:49:10;8.13;;;3.40;;
83761;SDS011;73752;49.594;8.734;2023-11-19T14:51:39;10.00;;;2.08;;
83761;SDS011;73752;49.594;8.734;2023-11-19T14:54:04;7.45;;;2.08;;
83761;SDS011;73752;49.594;8.734;2023-11-19T14:56:30;5.40;;;1.50;;
83761;SDS011;73752;49.594;8.734;2023-11-19T14:58:55;6.78;;;1.73;;
83761;SDS011;73752;49.594;8.734;2023-11-19T15:01:20;9.80;;;1.90;;
83761;SDS011;73752;49.594;8.734;2023-11-19T15:03:46;6.45;;;1.80;;
83761;SDS011;73752;49.594;8.734;2023-11-19T15:06:11;9.77;;;2.22;;
83761;SDS011;73752;49.594;8.734;2023-11-19T15:08:37;4.55;;;1.38;;